sensor_id;sensor_type;location;lat;lon;timestamp;P1;durP1;ratioP1;P2;durP2;ratioP2
41572;SDS011;27286;47.870;19.006;2024-01-30T00:01:39;20.58;;;10.05;;
41572;SDS011;27286;47.870;19.006;2024-01-30T00:04:05;26.10;;;11.02;;
41572;SDS011;27286;47.870;19.006;2024-01-30T00:06:30;18.38;;;8.70;;
41572;SDS011;27286;47.870;19.006;2024-01-30T00:08:56;21.35;;;9.57;;
41572;SDS011;27286;47.870;19.006;2024-01-30T00:11:22;19.70;;;9.43;;
41572;SDS011;27286;47.870;19.006;2024-01-30T00:13:47;21.88;;;9.73;;
41572;SDS011;27286;47.870;19.006;2024-01-30T00:16:22;22.05;;;9.27;;
41572;SDS011;27286;47.870;19.006;2024-01-30T00:18:51;19.30;;;10.43;;
41572;SDS011;27286;47.870;19.006;2024-01-30T00:21:18;18.63;;;10.15;;
41572;SDS011;27286;47.870;19.006;2024-01-30T00:23:43;18.25;;;9.32;;
41572;SDS011;27286;47.870;19.006;2024-01-30T00:26:09;21.15;;;10.80;;
41572;SDS011;27286;47.870;19.006;2024-01-30T00:28:35;18.85;;;10.88;;
41572;SDS011;27286;47.870;19.006;2024-01-30T00:31:00;24.85;;;13.05;;
41572;SDS011;27286;47.870;19.006;2024-01-30T00:33:26;24.75;;;12.23;;
41572;SDS011;27286;47.870;19.006;2024-01-30T00:35:51;25.92;;;11.38;;
41572;SDS011;27286;47.870;19.006;2024-01-30T00:38:16;21.75;;;10.73;;
41572;SDS011;27286;47.870;19.006;2024-01-30T00:40:42;20.40;;;10.93;;
41572;SDS011;27286;47.870;19.006;2024-01-30T00:43:08;20.10;;;10.77;;
41572;SDS011;27286;47.870;19.006;2024-01-30T00:45:33;24.73;;;11.50;;
41572;SDS011;27286;47.870;19.006;2024-01-30T00:47:58;25.58;;;12.05;;
41572;SDS011;27286;47.870;19.006;2024-01-30T00:50:24;30.88;;;14.77;;
41572;SDS011;27286;47.870;19.006;2024-01-30T00:52:49;21.85;;;11.57;;
41572;SDS011;27286;47.870;19.006;2024-01-30T00:55:15;24.27;;;12.32;;
41572;SDS011;27286;47.870;19.006;2024-01-30T00:57:40;21.30;;;11.13;;
41572;SDS011;27286;47.870;19.006;2024-01-30T01:00:07;18.95;;;9.88;;
41572;SDS011;27286;47.870;19.006;2024-01-30T01:02:37;19.10;;;9.20;;
41572;SDS011;27286;47.870;19.006;2024-01-30T01:05:04;20.88;;;8.10;;
41572;SDS011;27286;47.870;19.006;2024-01-30T01:07:30;18.25;;;8.57;;
41572;SDS011;27286;47.870;19.006;2024-01-30T01:09:55;15.65;;;6.53;;
41572;SDS011;27286;47.870;19.006;2024-01-30T01:12:21;12.20;;;6.90;;
41572;SDS011;27286;47.870;19.006;2024-01-30T01:14:46;18.30;;;8.88;;
41572;SDS011;27286;47.870;19.006;2024-01-30T01:17:12;18.60;;;8.30;;
41572;SDS011;27286;47.870;19.006;2024-01-30T01:19:37;20.00;;;8.30;;
41572;SDS011;27286;47.870;19.006;2024-01-30T01:22:03;17.38;;;7.45;;
41572;SDS011;27286;47.870;19.006;2024-01-30T01:24:30;18.55;;;7.90;;
41572;SDS011;27286;47.870;19.006;2024-01-30T01:26:56;24.05;;;12.00;;
41572;SDS011;27286;47.870;19.006;2024-01-30T01:29:22;20.95;;;11.38;;
41572;SDS011;27286;47.870;19.006;2024-01-30T01:31:53;25.83;;;14.77;;
41572;SDS011;27286;47.870;19.006;2024-01-30T01:34:19;24.23;;;12.20;;
41572;SDS011;27286;47.870;19.006;2024-01-30T01:36:45;17.02;;;9.07;;
41572;SDS011;27286;47.870;19.006;2024-01-30T01:39:10;14.65;;;8.07;;
41572;SDS011;27286;47.870;19.006;2024-01-30T01:41:38;16.75;;;7.60;;
41572;SDS011;27286;47.870;19.006;2024-01-30T01:44:03;13.73;;;7.75;;
41572;SDS011;27286;47.870;19.006;2024-01-30T01:46:29;19.90;;;8.80;;
41572;SDS011;27286;47.870;19.006;2024-01-30T01:48:56;16.02;;;7.38;;
41572;SDS011;27286;47.870;19.006;2024-01-30T01:51:22;15.88;;;7.50;;
41572;SDS011;27286;47.870;19.006;2024-01-30T01:53:49;20.85;;;9.00;;
41572;SDS011;27286;47.870;19.006;2024-01-30T01:56:16;23.00;;;9.40;;
41572;SDS011;27286;47.870;19.006;2024-01-30T01:58:41;24.63;;;11.07;;
41572;SDS011;27286;47.870;19.006;2024-01-30T02:01:08;19.13;;;9.80;;
41572;SDS011;27286;47.870;19.006;2024-01-30T02:03:34;22.65;;;10.00;;
41572;SDS011;27286;47.870;19.006;2024-01-30T02:05:59;21.33;;;9.30;;
41572;SDS011;27286;47.870;19.006;2024-01-30T02:08:27;16.30;;;7.22;;
41572;SDS011;27286;47.870;19.006;2024-01-30T02:10:53;18.05;;;8.13;;
41572;SDS011;27286;47.870;19.006;2024-01-30T02:13:20;14.30;;;7.80;;
41572;SDS011;27286;47.870;19.006;2024-01-30T02:15:52;17.50;;;7.85;;
41572;SDS011;27286;47.870;19.006;2024-01-30T02:18:19;14.43;;;6.95;;
41572;SDS011;27286;47.870;19.006;2024-01-30T02:20:46;17.40;;;7.97;;
41572;SDS011;27286;47.870;19.006;2024-01-30T02:23:12;13.98;;;7.45;;
41572;SDS011;27286;47.870;19.006;2024-01-30T02:25:40;15.40;;;6.60;;
41572;SDS011;27286;47.870;19.006;2024-01-30T02:28:10;14.35;;;6.90;;
41572;SDS011;27286;47.870;19.006;2024-01-30T02:30:38;13.02;;;7.15;;
41572;SDS011;27286;47.870;19.006;2024-01-30T02:33:04;15.27;;;7.95;;
41572;SDS011;27286;47.870;19.006;2024-01-30T02:35:29;15.98;;;7.85;;
41572;SDS011;27286;47.870;19.006;2024-01-30T02:37:55;18.13;;;7.55;;
41572;SDS011;27286;47.870;19.006;2024-01-30T02:40:20;13.55;;;6.30;;
41572;SDS011;27286;47.870;19.006;2024-01-30T02:42:46;15.50;;;7.50;;
41572;SDS011;27286;47.870;19.006;2024-01-30T02:45:12;13.52;;;6.88;;
41572;SDS011;27286;47.870;19.006;2024-01-30T02:47:38;15.38;;;7.40;;
41572;SDS011;27286;47.870;19.006;2024-01-30T02:50:04;16.73;;;7.07;;
41572;SDS011;27286;47.870;19.006;2024-01-30T02:52:29;17.10;;;6.72;;
41572;SDS011;27286;47.870;19.006;2024-01-30T02:54:55;15.88;;;7.00;;
41572;SDS011;27286;47.870;19.006;2024-01-30T02:57:20;13.20;;;7.35;;
41572;SDS011;27286;47.870;19.006;2024-01-30T02:59:46;16.38;;;7.57;;
41572;SDS011;27286;47.870;19.006;2024-01-30T03:02:11;12.70;;;7.00;;
41572;SDS011;27286;47.870;19.006;2024-01-30T03:04:36;16.27;;;7.00;;
41572;SDS011;27286;47.870;19.006;2024-01-30T03:07:02;12.98;;;7.25;;
41572;SDS011;27286;47.870;19.006;2024-01-30T03:09:28;17.58;;;9.40;;
41572;SDS011;27286;47.870;19.006;2024-01-30T03:11:53;17.77;;;8.52;;
41572;SDS011;27286;47.870;19.006;2024-01-30T03:14:19;18.60;;;9.65;;
41572;SDS011;27286;47.870;19.006;2024-01-30T03:16:44;20.27;;;8.88;;
41572;SDS011;27286;47.870;19.006;2024-01-30T03:19:10;19.52;;;8.50;;
41572;SDS011;27286;47.870;19.006;2024-01-30T03:21:35;17.80;;;8.07;;
41572;SDS011;27286;47.870;19.006;2024-01-30T03:24:00;13.73;;;7.32;;
41572;SDS011;27286;47.870;19.006;2024-01-30T03:26:26;15.80;;;7.22;;
41572;SDS011;27286;47.870;19.006;2024-01-30T03:28:51;17.27;;;7.93;;
41572;SDS011;27286;47.870;19.006;2024-01-30T03:31:17;18.10;;;8.15;;
41572;SDS011;27286;47.870;19.006;2024-01-30T03:33:42;17.25;;;8.57;;
41572;SDS011;27286;47.870;19.006;2024-01-30T03:36:08;16.30;;;8.07;;
41572;SDS011;27286;47.870;19.006;2024-01-30T03:38:34;18.83;;;9.23;;
41572;SDS011;27286;47.870;19.006;2024-01-30T03:41:00;21.80;;;8.80;;
41572;SDS011;27286;47.870;19.006;2024-01-30T03:43:25;16.92;;;7.95;;
41572;SDS011;27286;47.870;19.006;2024-01-30T03:45:51;24.50;;;9.13;;
41572;SDS011;27286;47.870;19.006;2024-01-30T03:48:16;16.48;;;7.78;;
41572;SDS011;27286;47.870;19.006;2024-01-30T03:50:41;20.23;;;7.78;;
41572;SDS011;27286;47.870;19.006;2024-01-30T03:53:07;17.45;;;8.82;;
41572;SDS011;27286;47.870;19.006;2024-01-30T03:55:32;15.32;;;8.27;;
41572;SDS011;27286;47.870;19.006;2024-01-30T03:57:58;17.33;;;7.10;;
41572;SDS011;27286;47.870;19.006;2024-01-30T04:00:23;12.43;;;5.65;;
41572;SDS011;27286;47.870;19.006;2024-01-30T04:02:49;17.23;;;7.38;;
41572;SDS011;27286;47.870;19.006;2024-01-30T04:05:16;16.17;;;6.28;;
41572;SDS011;27286;47.870;19.006;2024-01-30T04:07:41;14.35;;;6.47;;
41572;SDS011;27286;47.870;19.006;2024-01-30T04:10:07;12.45;;;6.05;;
41572;SDS011;27286;47.870;19.006;2024-01-30T04:12:33;16.08;;;7.88;;
41572;SDS011;27286;47.870;19.006;2024-01-30T04:14:58;13.52;;;6.57;;
41572;SDS011;27286;47.870;19.006;2024-01-30T04:17:24;20.40;;;8.90;;
41572;SDS011;27286;47.870;19.006;2024-01-30T04:19:49;12.55;;;5.97;;
41572;SDS011;27286;47.870;19.006;2024-01-30T04:22:14;17.50;;;6.97;;
41572;SDS011;27286;47.870;19.006;2024-01-30T04:24:40;18.73;;;7.30;;
41572;SDS011;27286;47.870;19.006;2024-01-30T04:27:05;13.77;;;6.38;;
41572;SDS011;27286;47.870;19.006;2024-01-30T04:29:31;15.77;;;6.80;;
41572;SDS011;27286;47.870;19.006;2024-01-30T04:31:57;16.23;;;6.65;;
41572;SDS011;27286;47.870;19.006;2024-01-30T04:34:23;12.77;;;6.45;;
41572;SDS011;27286;47.870;19.006;2024-01-30T04:36:48;14.52;;;6.68;;
41572;SDS011;27286;47.870;19.006;2024-01-30T04:39:13;13.32;;;6.47;;
41572;SDS011;27286;47.870;19.006;2024-01-30T04:41:39;15.43;;;6.10;;
41572;SDS011;27286;47.870;19.006;2024-01-30T04:44:04;13.15;;;5.95;;
41572;SDS011;27286;47.870;19.006;2024-01-30T04:46:30;15.35;;;7.45;;
41572;SDS011;27286;47.870;19.006;2024-01-30T04:48:55;17.85;;;6.57;;
41572;SDS011;27286;47.870;19.006;2024-01-30T04:51:21;17.90;;;7.22;;
41572;SDS011;27286;47.870;19.006;2024-01-30T04:53:46;12.27;;;6.15;;
41572;SDS011;27286;47.870;19.006;2024-01-30T04:56:11;12.38;;;5.88;;
41572;SDS011;27286;47.870;19.006;2024-01-30T04:58:37;13.02;;;6.43;;
41572;SDS011;27286;47.870;19.006;2024-01-30T05:01:02;12.85;;;6.00;;
41572;SDS011;27286;47.870;19.006;2024-01-30T05:03:28;15.27;;;6.78;;
41572;SDS011;27286;47.870;19.006;2024-01-30T05:05:53;11.50;;;5.97;;
41572;SDS011;27286;47.870;19.006;2024-01-30T05:08:18;14.93;;;6.63;;
41572;SDS011;27286;47.870;19.006;2024-01-30T05:10:44;12.20;;;5.60;;
41572;SDS011;27286;47.870;19.006;2024-01-30T05:13:09;11.70;;;6.60;;
41572;SDS011;27286;47.870;19.006;2024-01-30T05:15:35;14.40;;;6.55;;
41572;SDS011;27286;47.870;19.006;2024-01-30T05:18:00;12.18;;;6.55;;
41572;SDS011;27286;47.870;19.006;2024-01-30T05:20:26;16.83;;;7.55;;
41572;SDS011;27286;47.870;19.006;2024-01-30T05:22:53;13.45;;;6.60;;
41572;SDS011;27286;47.870;19.006;2024-01-30T05:25:19;13.52;;;7.53;;
41572;SDS011;27286;47.870;19.006;2024-01-30T05:27:44;14.27;;;7.22;;
41572;SDS011;27286;47.870;19.006;2024-01-30T05:30:10;13.73;;;6.90;;
41572;SDS011;27286;47.870;19.006;2024-01-30T05:32:36;12.52;;;6.88;;
41572;SDS011;27286;47.870;19.006;2024-01-30T05:35:01;18.33;;;7.38;;
41572;SDS011;27286;47.870;19.006;2024-01-30T05:37:27;15.73;;;7.57;;
41572;SDS011;27286;47.870;19.006;2024-01-30T05:39:52;18.67;;;9.52;;
41572;SDS011;27286;47.870;19.006;2024-01-30T05:42:17;14.82;;;7.40;;
41572;SDS011;27286;47.870;19.006;2024-01-30T05:44:43;16.00;;;8.15;;
41572;SDS011;27286;47.870;19.006;2024-01-30T05:47:08;15.45;;;7.03;;
41572;SDS011;27286;47.870;19.006;2024-01-30T05:49:34;15.35;;;7.68;;
41572;SDS011;27286;47.870;19.006;2024-01-30T05:52:00;19.33;;;8.85;;
41572;SDS011;27286;47.870;19.006;2024-01-30T05:54:27;24.17;;;7.70;;
41572;SDS011;27286;47.870;19.006;2024-01-30T05:56:52;14.75;;;6.78;;
41572;SDS011;27286;47.870;19.006;2024-01-30T05:59:18;16.77;;;7.00;;
41572;SDS011;27286;47.870;19.006;2024-01-30T06:01:49;15.38;;;7.28;;
41572;SDS011;27286;47.870;19.006;2024-01-30T06:04:14;18.05;;;7.28;;
41572;SDS011;27286;47.870;19.006;2024-01-30T06:06:40;22.25;;;10.70;;
41572;SDS011;27286;47.870;19.006;2024-01-30T06:09:06;14.98;;;8.60;;
41572;SDS011;27286;47.870;19.006;2024-01-30T06:11:34;25.42;;;11.20;;
41572;SDS011;27286;47.870;19.006;2024-01-30T06:13:59;21.50;;;9.85;;
41572;SDS011;27286;47.870;19.006;2024-01-30T06:16:24;22.05;;;10.48;;
41572;SDS011;27286;47.870;19.006;2024-01-30T06:18:54;14.63;;;7.95;;
41572;SDS011;27286;47.870;19.006;2024-01-30T06:21:23;15.40;;;7.82;;
41572;SDS011;27286;47.870;19.006;2024-01-30T06:23:48;14.38;;;7.75;;
41572;SDS011;27286;47.870;19.006;2024-01-30T06:26:14;18.30;;;7.25;;
41572;SDS011;27286;47.870;19.006;2024-01-30T06:28:39;19.40;;;7.70;;
41572;SDS011;27286;47.870;19.006;2024-01-30T06:31:05;18.17;;;8.30;;
41572;SDS011;27286;47.870;19.006;2024-01-30T06:33:30;13.50;;;6.90;;
41572;SDS011;27286;47.870;19.006;2024-01-30T06:35:55;22.10;;;7.57;;
41572;SDS011;27286;47.870;19.006;2024-01-30T06:38:21;15.23;;;7.50;;
41572;SDS011;27286;47.870;19.006;2024-01-30T06:40:46;19.52;;;8.20;;
41572;SDS011;27286;47.870;19.006;2024-01-30T06:43:11;15.20;;;7.07;;
41572;SDS011;27286;47.870;19.006;2024-01-30T06:45:37;20.73;;;8.40;;
41572;SDS011;27286;47.870;19.006;2024-01-30T06:48:02;17.27;;;8.10;;
41572;SDS011;27286;47.870;19.006;2024-01-30T06:50:28;16.70;;;8.25;;
41572;SDS011;27286;47.870;19.006;2024-01-30T06:52:53;19.00;;;8.75;;
41572;SDS011;27286;47.870;19.006;2024-01-30T06:55:19;19.05;;;8.95;;
41572;SDS011;27286;47.870;19.006;2024-01-30T06:57:44;16.25;;;7.05;;
41572;SDS011;27286;47.870;19.006;2024-01-30T07:00:10;15.63;;;8.32;;
41572;SDS011;27286;47.870;19.006;2024-01-30T07:02:36;19.23;;;8.95;;
41572;SDS011;27286;47.870;19.006;2024-01-30T07:05:01;16.63;;;8.30;;
41572;SDS011;27286;47.870;19.006;2024-01-30T07:07:28;15.75;;;8.23;;
41572;SDS011;27286;47.870;19.006;2024-01-30T07:09:53;55.90;;;27.30;;
41572;SDS011;27286;47.870;19.006;2024-01-30T07:12:21;88.68;;;47.20;;
41572;SDS011;27286;47.870;19.006;2024-01-30T07:14:51;59.35;;;31.80;;
41572;SDS011;27286;47.870;19.006;2024-01-30T07:17:16;119.20;;;62.03;;
41572;SDS011;27286;47.870;19.006;2024-01-30T07:19:42;111.40;;;60.88;;
41572;SDS011;27286;47.870;19.006;2024-01-30T07:22:07;279.58;;;127.38;;
41572;SDS011;27286;47.870;19.006;2024-01-30T07:24:33;344.10;;;156.63;;
41572;SDS011;27286;47.870;19.006;2024-01-30T07:26:58;319.13;;;136.05;;
41572;SDS011;27286;47.870;19.006;2024-01-30T07:29:24;225.20;;;104.30;;
41572;SDS011;27286;47.870;19.006;2024-01-30T07:31:49;173.73;;;86.95;;
41572;SDS011;27286;47.870;19.006;2024-01-30T07:34:15;106.20;;;53.92;;
41572;SDS011;27286;47.870;19.006;2024-01-30T07:36:40;171.07;;;82.70;;
41572;SDS011;27286;47.870;19.006;2024-01-30T07:39:06;155.88;;;77.43;;
41572;SDS011;27286;47.870;19.006;2024-01-30T07:41:31;116.70;;;56.53;;
41572;SDS011;27286;47.870;19.006;2024-01-30T07:43:57;94.20;;;46.15;;
41572;SDS011;27286;47.870;19.006;2024-01-30T07:46:22;27.85;;;14.57;;
41572;SDS011;27286;47.870;19.006;2024-01-30T07:48:48;17.88;;;8.55;;
41572;SDS011;27286;47.870;19.006;2024-01-30T07:51:13;17.13;;;7.60;;
41572;SDS011;27286;47.870;19.006;2024-01-30T07:53:39;15.57;;;8.73;;
41572;SDS011;27286;47.870;19.006;2024-01-30T07:56:05;16.83;;;9.15;;
41572;SDS011;27286;47.870;19.006;2024-01-30T07:58:30;38.25;;;20.13;;
41572;SDS011;27286;47.870;19.006;2024-01-30T08:00:56;33.33;;;18.20;;
41572;SDS011;27286;47.870;19.006;2024-01-30T08:03:23;58.33;;;35.97;;
41572;SDS011;27286;47.870;19.006;2024-01-30T08:05:49;78.60;;;50.28;;
41572;SDS011;27286;47.870;19.006;2024-01-30T08:08:14;75.03;;;47.70;;
41572;SDS011;27286;47.870;19.006;2024-01-30T08:10:40;68.68;;;46.50;;
41572;SDS011;27286;47.870;19.006;2024-01-30T08:13:05;89.13;;;62.72;;
41572;SDS011;27286;47.870;19.006;2024-01-30T08:15:31;108.13;;;74.40;;
41572;SDS011;27286;47.870;19.006;2024-01-30T08:17:56;108.45;;;73.38;;
41572;SDS011;27286;47.870;19.006;2024-01-30T08:20:24;82.45;;;55.30;;
41572;SDS011;27286;47.870;19.006;2024-01-30T08:22:50;62.55;;;45.47;;
41572;SDS011;27286;47.870;19.006;2024-01-30T08:25:15;70.38;;;49.75;;
41572;SDS011;27286;47.870;19.006;2024-01-30T08:27:41;29.65;;;20.20;;
41572;SDS011;27286;47.870;19.006;2024-01-30T08:30:06;23.55;;;16.60;;
41572;SDS011;27286;47.870;19.006;2024-01-30T08:32:32;24.90;;;17.58;;
41572;SDS011;27286;47.870;19.006;2024-01-30T08:34:58;24.77;;;18.35;;
41572;SDS011;27286;47.870;19.006;2024-01-30T08:37:23;31.25;;;22.40;;
41572;SDS011;27286;47.870;19.006;2024-01-30T08:39:49;42.75;;;28.58;;
41572;SDS011;27286;47.870;19.006;2024-01-30T08:42:14;35.92;;;25.92;;
41572;SDS011;27286;47.870;19.006;2024-01-30T08:44:40;21.95;;;15.15;;
41572;SDS011;27286;47.870;19.006;2024-01-30T08:47:05;23.73;;;19.05;;
41572;SDS011;27286;47.870;19.006;2024-01-30T08:49:31;19.00;;;14.13;;
41572;SDS011;27286;47.870;19.006;2024-01-30T08:51:56;23.60;;;16.02;;
41572;SDS011;27286;47.870;19.006;2024-01-30T08:54:22;23.65;;;16.73;;
41572;SDS011;27286;47.870;19.006;2024-01-30T08:56:48;27.65;;;18.38;;
41572;SDS011;27286;47.870;19.006;2024-01-30T08:59:14;28.67;;;22.52;;
41572;SDS011;27286;47.870;19.006;2024-01-30T09:01:39;30.88;;;22.95;;
41572;SDS011;27286;47.870;19.006;2024-01-30T09:04:05;29.73;;;21.20;;
41572;SDS011;27286;47.870;19.006;2024-01-30T09:06:30;31.17;;;21.00;;
41572;SDS011;27286;47.870;19.006;2024-01-30T09:08:56;23.70;;;17.63;;
41572;SDS011;27286;47.870;19.006;2024-01-30T09:11:23;26.38;;;17.60;;
41572;SDS011;27286;47.870;19.006;2024-01-30T09:13:48;28.38;;;17.85;;
41572;SDS011;27286;47.870;19.006;2024-01-30T09:16:14;17.05;;;13.02;;
41572;SDS011;27286;47.870;19.006;2024-01-30T09:18:41;11.43;;;8.80;;
41572;SDS011;27286;47.870;19.006;2024-01-30T09:21:06;13.70;;;7.65;;
41572;SDS011;27286;47.870;19.006;2024-01-30T09:23:32;13.75;;;7.65;;
41572;SDS011;27286;47.870;19.006;2024-01-30T09:25:58;13.85;;;10.52;;
41572;SDS011;27286;47.870;19.006;2024-01-30T09:28:24;15.23;;;10.68;;
41572;SDS011;27286;47.870;19.006;2024-01-30T09:30:49;13.38;;;8.35;;
41572;SDS011;27286;47.870;19.006;2024-01-30T09:33:14;13.20;;;8.80;;
41572;SDS011;27286;47.870;19.006;2024-01-30T09:35:40;10.15;;;7.22;;
41572;SDS011;27286;47.870;19.006;2024-01-30T09:38:05;12.20;;;8.55;;
41572;SDS011;27286;47.870;19.006;2024-01-30T09:40:31;12.30;;;7.78;;
41572;SDS011;27286;47.870;19.006;2024-01-30T09:42:56;11.73;;;8.30;;
41572;SDS011;27286;47.870;19.006;2024-01-30T09:45:25;13.95;;;8.43;;
41572;SDS011;27286;47.870;19.006;2024-01-30T09:47:51;12.25;;;8.77;;
41572;SDS011;27286;47.870;19.006;2024-01-30T09:50:18;13.07;;;9.32;;
41572;SDS011;27286;47.870;19.006;2024-01-30T09:52:44;17.15;;;11.90;;
41572;SDS011;27286;47.870;19.006;2024-01-30T09:55:10;14.45;;;10.52;;
41572;SDS011;27286;47.870;19.006;2024-01-30T09:57:35;14.98;;;9.27;;
41572;SDS011;27286;47.870;19.006;2024-01-30T10:00:04;13.75;;;9.95;;
41572;SDS011;27286;47.870;19.006;2024-01-30T10:02:32;14.38;;;11.00;;
41572;SDS011;27286;47.870;19.006;2024-01-30T10:04:58;13.88;;;9.88;;
41572;SDS011;27286;47.870;19.006;2024-01-30T10:07:25;15.77;;;11.23;;
41572;SDS011;27286;47.870;19.006;2024-01-30T10:09:50;15.32;;;10.88;;
41572;SDS011;27286;47.870;19.006;2024-01-30T10:12:16;14.07;;;10.45;;
41572;SDS011;27286;47.870;19.006;2024-01-30T10:14:42;11.32;;;8.93;;
41572;SDS011;27286;47.870;19.006;2024-01-30T10:17:11;13.95;;;10.23;;
41572;SDS011;27286;47.870;19.006;2024-01-30T10:19:37;15.07;;;10.20;;
41572;SDS011;27286;47.870;19.006;2024-01-30T10:22:03;13.88;;;9.93;;
41572;SDS011;27286;47.870;19.006;2024-01-30T10:24:29;16.50;;;10.13;;
41572;SDS011;27286;47.870;19.006;2024-01-30T10:26:55;14.75;;;9.90;;
41572;SDS011;27286;47.870;19.006;2024-01-30T10:29:21;16.92;;;10.70;;
41572;SDS011;27286;47.870;19.006;2024-01-30T10:31:57;15.52;;;10.55;;
41572;SDS011;27286;47.870;19.006;2024-01-30T10:34:26;15.70;;;9.98;;
41572;SDS011;27286;47.870;19.006;2024-01-30T10:36:55;14.00;;;10.52;;
41572;SDS011;27286;47.870;19.006;2024-01-30T10:39:30;16.83;;;10.88;;
41572;SDS011;27286;47.870;19.006;2024-01-30T10:42:02;17.15;;;11.80;;
41572;SDS011;27286;47.870;19.006;2024-01-30T10:44:30;13.70;;;8.13;;
41572;SDS011;27286;47.870;19.006;2024-01-30T10:47:03;10.45;;;7.63;;
41572;SDS011;27286;47.870;19.006;2024-01-30T10:49:36;12.30;;;8.18;;
41572;SDS011;27286;47.870;19.006;2024-01-30T10:52:03;12.45;;;8.27;;
41572;SDS011;27286;47.870;19.006;2024-01-30T10:54:30;12.30;;;9.07;;
41572;SDS011;27286;47.870;19.006;2024-01-30T10:56:57;12.70;;;8.35;;
41572;SDS011;27286;47.870;19.006;2024-01-30T10:59:26;16.50;;;8.75;;
41572;SDS011;27286;47.870;19.006;2024-01-30T11:01:53;14.23;;;8.85;;
41572;SDS011;27286;47.870;19.006;2024-01-30T11:04:18;13.02;;;7.70;;
41572;SDS011;27286;47.870;19.006;2024-01-30T11:06:44;13.32;;;9.82;;
41572;SDS011;27286;47.870;19.006;2024-01-30T11:09:12;14.40;;;10.60;;
41572;SDS011;27286;47.870;19.006;2024-01-30T11:11:52;13.02;;;9.10;;
41572;SDS011;27286;47.870;19.006;2024-01-30T11:14:25;15.60;;;9.95;;
41572;SDS011;27286;47.870;19.006;2024-01-30T11:16:51;24.52;;;15.40;;
41572;SDS011;27286;47.870;19.006;2024-01-30T11:19:22;17.23;;;12.30;;
41572;SDS011;27286;47.870;19.006;2024-01-30T11:21:50;14.75;;;10.45;;
41572;SDS011;27286;47.870;19.006;2024-01-30T11:24:19;21.38;;;14.70;;
41572;SDS011;27286;47.870;19.006;2024-01-30T11:26:46;21.20;;;15.18;;
41572;SDS011;27286;47.870;19.006;2024-01-30T11:29:13;16.42;;;11.77;;
41572;SDS011;27286;47.870;19.006;2024-01-30T11:31:40;17.45;;;12.57;;
41572;SDS011;27286;47.870;19.006;2024-01-30T11:34:05;16.80;;;11.15;;
41572;SDS011;27286;47.870;19.006;2024-01-30T11:36:31;16.83;;;12.43;;
41572;SDS011;27286;47.870;19.006;2024-01-30T11:38:59;16.02;;;11.25;;
41572;SDS011;27286;47.870;19.006;2024-01-30T11:41:25;16.13;;;10.75;;
41572;SDS011;27286;47.870;19.006;2024-01-30T11:43:52;12.68;;;9.43;;
41572;SDS011;27286;47.870;19.006;2024-01-30T11:46:18;13.07;;;10.75;;
41572;SDS011;27286;47.870;19.006;2024-01-30T11:48:43;10.10;;;8.50;;
41572;SDS011;27286;47.870;19.006;2024-01-30T11:51:09;16.23;;;11.32;;
41572;SDS011;27286;47.870;19.006;2024-01-30T11:53:34;17.48;;;10.98;;
41572;SDS011;27286;47.870;19.006;2024-01-30T11:55:59;17.73;;;10.60;;
41572;SDS011;27286;47.870;19.006;2024-01-30T11:58:25;12.80;;;9.63;;
41572;SDS011;27286;47.870;19.006;2024-01-30T12:00:55;14.38;;;9.38;;
41572;SDS011;27286;47.870;19.006;2024-01-30T12:03:21;15.10;;;10.85;;
41572;SDS011;27286;47.870;19.006;2024-01-30T12:05:46;14.52;;;10.48;;
41572;SDS011;27286;47.870;19.006;2024-01-30T12:08:15;16.85;;;12.63;;
41572;SDS011;27286;47.870;19.006;2024-01-30T12:10:41;23.75;;;16.98;;
41572;SDS011;27286;47.870;19.006;2024-01-30T12:13:07;16.45;;;11.80;;
41572;SDS011;27286;47.870;19.006;2024-01-30T12:15:32;17.63;;;13.00;;
41572;SDS011;27286;47.870;19.006;2024-01-30T12:18:04;23.17;;;15.10;;
41572;SDS011;27286;47.870;19.006;2024-01-30T12:20:31;17.85;;;12.32;;
41572;SDS011;27286;47.870;19.006;2024-01-30T12:22:56;22.75;;;15.32;;
41572;SDS011;27286;47.870;19.006;2024-01-30T12:25:21;21.83;;;14.30;;
41572;SDS011;27286;47.870;19.006;2024-01-30T12:27:49;18.35;;;13.27;;
41572;SDS011;27286;47.870;19.006;2024-01-30T12:30:16;18.67;;;13.65;;
41572;SDS011;27286;47.870;19.006;2024-01-30T12:32:42;18.45;;;12.88;;
41572;SDS011;27286;47.870;19.006;2024-01-30T12:35:10;18.67;;;10.95;;
41572;SDS011;27286;47.870;19.006;2024-01-30T12:37:36;14.68;;;9.10;;
41572;SDS011;27286;47.870;19.006;2024-01-30T12:40:02;13.35;;;10.40;;
41572;SDS011;27286;47.870;19.006;2024-01-30T12:42:28;20.27;;;12.85;;
41572;SDS011;27286;47.870;19.006;2024-01-30T12:44:53;17.85;;;12.93;;
41572;SDS011;27286;47.870;19.006;2024-01-30T12:47:21;19.00;;;12.70;;
41572;SDS011;27286;47.870;19.006;2024-01-30T12:49:47;18.77;;;12.18;;
41572;SDS011;27286;47.870;19.006;2024-01-30T12:52:14;18.05;;;13.13;;
41572;SDS011;27286;47.870;19.006;2024-01-30T12:54:41;18.98;;;13.70;;
41572;SDS011;27286;47.870;19.006;2024-01-30T12:57:06;20.40;;;12.95;;
41572;SDS011;27286;47.870;19.006;2024-01-30T12:59:32;14.77;;;10.40;;
41572;SDS011;27286;47.870;19.006;2024-01-30T13:01:59;15.02;;;9.82;;
41572;SDS011;27286;47.870;19.006;2024-01-30T13:04:25;17.10;;;10.40;;
41572;SDS011;27286;47.870;19.006;2024-01-30T13:06:51;18.35;;;10.82;;
41572;SDS011;27286;47.870;19.006;2024-01-30T13:09:17;21.00;;;11.82;;
41572;SDS011;27286;47.870;19.006;2024-01-30T13:11:42;17.00;;;11.32;;
41572;SDS011;27286;47.870;19.006;2024-01-30T13:14:08;17.75;;;12.23;;
41572;SDS011;27286;47.870;19.006;2024-01-30T13:16:33;15.63;;;11.85;;
41572;SDS011;27286;47.870;19.006;2024-01-30T13:18:58;18.98;;;11.05;;
41572;SDS011;27286;47.870;19.006;2024-01-30T13:21:26;20.30;;;11.93;;
41572;SDS011;27286;47.870;19.006;2024-01-30T13:23:51;17.92;;;11.73;;
41572;SDS011;27286;47.870;19.006;2024-01-30T13:26:19;19.20;;;12.60;;
41572;SDS011;27286;47.870;19.006;2024-01-30T13:28:44;24.60;;;14.10;;
41572;SDS011;27286;47.870;19.006;2024-01-30T13:31:10;20.05;;;11.80;;
41572;SDS011;27286;47.870;19.006;2024-01-30T13:33:35;26.27;;;11.85;;
41572;SDS011;27286;47.870;19.006;2024-01-30T13:36:01;20.13;;;14.02;;
41572;SDS011;27286;47.870;19.006;2024-01-30T13:38:26;19.23;;;11.93;;
41572;SDS011;27286;47.870;19.006;2024-01-30T13:40:52;14.73;;;9.88;;
41572;SDS011;27286;47.870;19.006;2024-01-30T13:43:17;18.20;;;11.43;;
41572;SDS011;27286;47.870;19.006;2024-01-30T13:45:43;13.75;;;9.63;;
41572;SDS011;27286;47.870;19.006;2024-01-30T13:48:08;21.38;;;11.20;;
41572;SDS011;27286;47.870;19.006;2024-01-30T13:50:34;17.95;;;11.30;;
41572;SDS011;27286;47.870;19.006;2024-01-30T13:52:59;19.65;;;12.90;;
41572;SDS011;27286;47.870;19.006;2024-01-30T13:55:25;17.50;;;12.40;;
41572;SDS011;27286;47.870;19.006;2024-01-30T13:57:50;22.05;;;11.13;;
41572;SDS011;27286;47.870;19.006;2024-01-30T14:00:16;24.67;;;14.52;;
41572;SDS011;27286;47.870;19.006;2024-01-30T14:02:41;18.90;;;10.90;;
41572;SDS011;27286;47.870;19.006;2024-01-30T14:05:07;21.65;;;12.40;;
41572;SDS011;27286;47.870;19.006;2024-01-30T14:07:35;21.40;;;13.15;;
41572;SDS011;27286;47.870;19.006;2024-01-30T14:10:01;19.58;;;13.05;;